Time;durP1;ratioP1;P1;durP2;ratioP2;P2;SDS_P1;SDS_P2;PMS_P1;PMS_P2;Temp;Humidity;BMP_temperature;BMP_pressure;BME280_temperature;BME280_humidity;BME280_pressure;Samples;Min_cycle;Max_cycle;Signal;HPM_P1;HPM_P2
2022/11/30 00:01:29;;;;;;;;;;;;;;;8.94;51.70;100186.22;4454244;32;33104;-70
2022/11/30 00:03:57;;;;;;;;;;;;;;;8.61;53.14;100180.16;4471821;32;33961;-71
2022/11/30 00:06:24;;;;;;;;;;;;;;;9.48;50.91;100176.59;4467387;32;34377;-71
2022/11/30 00:08:54;;;;;;;;;;;;;;;9.05;51.92;100175.72;4471102;32;33084;-73
2022/11/30 00:11:22;;;;;;;;;;;;;;;9.40;50.78;100170.84;4438830;32;33522;-71
2022/11/30 00:13:49;;;;;;;;;;;;;;;9.60;50.12;100174.06;4466780;31;33659;-74
2022/11/30 00:16:17;;;;;;;;;;;;;;;9.57;49.37;100170.66;4470790;31;34016;-71
2022/11/30 00:18:44;;;;;;;;;;;;;;;9.41;50.42;100172.59;4475885;32;34541;-70
2022/11/30 00:21:12;;;;;;;;;;;;;;;9.01;52.05;100177.72;4479635;32;34549;-70
2022/11/30 00:23:40;;;;;;;;;;;;;;;8.55;51.46;100171.66;4473673;32;34270;-68
2022/11/30 00:26:09;;;;;;;;;;;;;;;9.03;50.19;100180.31;4469970;31;35505;-68
2022/11/30 00:28:37;;;;;;;;;;;;;;;8.22;53.44;100175.34;4474410;32;35357;-69
2022/11/30 00:31:05;;;;;;;;;;;;;;;7.76;53.77;100169.94;4472174;31;33680;-68
2022/11/30 00:33:33;;;;;;;;;;;;;;;8.11;52.63;100173.28;4470474;31;32781;-68
2022/11/30 00:36:02;;;;;;;;;;;;;;;7.86;52.79;100175.63;4470930;31;34029;-70
2022/11/30 00:38:33;;;;;;;;;;;;;;;8.16;52.65;100176.53;4476741;32;33122;-69
2022/11/30 00:41:00;;;;;;;;;;;;;;;7.55;54.02;100168.50;4473974;32;34630;-68
2022/11/30 00:43:28;;;;;;;;;;;;;;;7.73;53.41;100171.94;4478260;32;35117;-65
2022/11/30 00:45:56;;;;;;;;;;;;;;;7.73;53.30;100175.44;4465833;32;34349;-68
2022/11/30 00:48:23;;;;;;;;;;;;;;;8.19;53.00;100182.66;4470412;32;34427;-67
2022/11/30 00:50:51;;;;;;;;;;;;;;;8.07;53.11;100178.88;4467345;32;34344;-67
2022/11/30 00:53:18;;;;;;;;;;;;;;;7.88;53.41;100181.72;4463876;32;35165;-66
2022/11/30 00:55:46;;;;;;;;;;;;;;;8.13;51.99;100178.53;4475906;32;33935;-67
2022/11/30 00:58:13;;;;;;;;;;;;;;;8.08;51.75;100172.59;4468177;32;35466;-67
2022/11/30 01:00:40;;;;;;;;;;;;;;;8.31;52.13;100181.91;4468326;32;33136;-66
2022/11/30 01:03:08;;;;;;;;;;;;;;;7.88;52.25;100187.06;4470189;32;33772;-65
2022/11/30 01:05:35;;;;;;;;;;;;;;;8.33;51.06;100177.38;4464189;32;35176;-69
2022/11/30 01:08:04;;;;;;;;;;;;;;;8.12;51.45;100182.13;4464634;32;35049;-66
2022/11/30 01:10:34;;;;;;;;;;;;;;;8.31;51.72;100184.59;4462356;32;32341;-69
2022/11/30 01:13:02;;;;;;;;;;;;;;;8.56;50.58;100184.91;4465188;32;33435;-66
2022/11/30 01:15:29;;;;;;;;;;;;;;;7.91;53.30;100187.75;4467589;32;33820;-67
2022/11/30 01:18:00;;;;;;;;;;;;;;;8.81;50.63;100188.78;4469949;32;33806;-68
2022/11/30 01:20:27;;;;;;;;;;;;;;;8.14;51.19;100186.44;4463688;32;33255;-67
2022/11/30 01:22:54;;;;;;;;;;;;;;;9.30;48.83;100181.25;4472582;32;32349;-68
2022/11/30 01:25:22;;;;;;;;;;;;;;;9.41;48.55;100182.44;4479496;32;34063;-66
2022/11/30 01:27:49;;;;;;;;;;;;;;;9.34;49.21;100181.91;4479596;32;34081;-71
2022/11/30 01:30:17;;;;;;;;;;;;;;;9.31;49.56;100177.66;4470017;32;33689;-67
2022/11/30 01:32:44;;;;;;;;;;;;;;;8.63;50.23;100174.72;4465143;32;35638;-67
2022/11/30 01:35:11;;;;;;;;;;;;;;;8.66;50.09;100176.34;4465995;32;32779;-68
2022/11/30 01:37:39;;;;;;;;;;;;;;;8.89;51.18;100166.94;4465598;32;35442;-68
2022/11/30 01:40:06;;;;;;;;;;;;;;;9.55;47.51;100166.37;4475633;32;34799;-68
2022/11/30 01:42:36;;;;;;;;;;;;;;;9.55;46.74;100164.53;4479760;32;34405;-68
2022/11/30 01:45:04;;;;;;;;;;;;;;;9.53;46.47;100166.47;4468552;32;34508;-69
2022/11/30 01:47:38;;;;;;;;;;;;;;;9.44;47.47;100164.38;4468112;32;33342;-68
2022/11/30 01:50:07;;;;;;;;;;;;;;;9.65;46.40;100159.47;4465655;32;33450;-70
2022/11/30 01:52:36;;;;;;;;;;;;;;;9.50;46.23;100160.44;4471537;32;34392;-66
2022/11/30 01:55:09;;;;;;;;;;;;;;;9.54;46.22;100159.31;4463553;32;35574;-68
2022/11/30 01:57:38;;;;;;;;;;;;;;;9.32;47.38;100167.81;4471959;32;35177;-71
2022/11/30 02:00:07;;;;;;;;;;;;;;;8.43;48.52;100164.38;4460098;32;34564;-67
2022/11/30 02:02:42;;;;;;;;;;;;;;;9.24;46.22;100168.28;4467377;32;34038;-68
2022/11/30 02:05:10;;;;;;;;;;;;;;;9.47;45.86;100166.88;4475194;32;33285;-66
2022/11/30 02:07:37;;;;;;;;;;;;;;;9.09;46.54;100155.91;4453286;32;34558;-68
2022/11/30 02:10:05;;;;;;;;;;;;;;;9.01;47.37;100164.38;4467644;32;33453;-68
2022/11/30 02:12:54;;;;;;;;;;;;;;;9.00;46.15;100165.34;4465804;32;33764;-68
2022/11/30 02:15:22;;;;;;;;;;;;;;;8.91;47.35;100160.56;4460011;32;34092;-72
2022/11/30 02:17:52;;;;;;;;;;;;;;;9.44;45.60;100158.19;4455849;32;33834;-69
2022/11/30 02:20:22;;;;;;;;;;;;;;;8.75;46.74;100159.78;4453269;32;33066;-69
2022/11/30 02:23:02;;;;;;;;;;;;;;;9.07;47.09;100174.69;4465544;32;33841;-71
2022/11/30 02:25:49;;;;;;;;;;;;;;;9.11;46.42;100167.34;4453901;32;35467;-67
2022/11/30 02:28:36;;;;;;;;;;;;;;;9.38;46.01;100162.09;4470079;32;35240;-67
2022/11/30 02:31:03;;;;;;;;;;;;;;;8.83;46.60;100152.19;4472608;32;33079;-67
2022/11/30 02:33:30;;;;;;;;;;;;;;;8.88;46.05;100151.88;4460639;32;34833;-68
2022/11/30 02:35:58;;;;;;;;;;;;;;;8.92;46.28;100156.06;4456532;32;34893;-68
2022/11/30 02:38:26;;;;;;;;;;;;;;;9.10;46.19;100145.13;4470051;32;34426;-67
2022/11/30 02:40:53;;;;;;;;;;;;;;;8.60;46.73;100143.75;4476124;32;33629;-67
2022/11/30 02:43:21;;;;;;;;;;;;;;;9.13;46.13;100137.88;4466792;32;34188;-68
2022/11/30 02:45:51;;;;;;;;;;;;;;;9.08;46.27;100148.84;4463401;32;34505;-67
2022/11/30 02:48:20;;;;;;;;;;;;;;;8.71;47.35;100155.59;4471220;32;35646;-67
2022/11/30 02:50:48;;;;;;;;;;;;;;;8.99;45.82;100155.63;4462186;32;32681;-70
2022/11/30 02:53:15;;;;;;;;;;;;;;;8.91;46.38;100144.53;4474199;32;33899;-67
2022/11/30 02:55:43;;;;;;;;;;;;;;;9.03;46.48;100149.13;4475809;32;35598;-69
2022/11/30 02:58:10;;;;;;;;;;;;;;;8.76;46.87;100145.47;4464694;32;35006;-70
2022/11/30 03:00:38;;;;;;;;;;;;;;;8.82;47.20;100151.28;4467461;32;34929;-69
2022/11/30 03:03:05;;;;;;;;;;;;;;;8.50;49.26;100147.91;4468415;32;35454;-68
2022/11/30 03:05:32;;;;;;;;;;;;;;;9.00;47.28;100145.81;4467409;32;33423;-70
2022/11/30 03:08:00;;;;;;;;;;;;;;;8.39;48.14;100143.22;4460409;32;34582;-68
2022/11/30 03:10:27;;;;;;;;;;;;;;;8.43;48.08;100146.56;4463107;32;33735;-67
2022/11/30 03:12:58;;;;;;;;;;;;;;;8.67;48.62;100143.38;4467522;32;33799;-70
2022/11/30 03:15:25;;;;;;;;;;;;;;;8.15;48.50;100147.28;4468019;32;34564;-68
2022/11/30 03:17:53;;;;;;;;;;;;;;;8.98;45.89;100153.88;4470569;32;34065;-67
2022/11/30 03:20:20;;;;;;;;;;;;;;;9.11;46.08;100148.66;4476033;32;33264;-68
2022/11/30 03:22:47;;;;;;;;;;;;;;;8.36;47.96;100142.50;4471791;32;34583;-70
2022/11/30 03:25:15;;;;;;;;;;;;;;;9.23;45.70;100155.03;4476809;32;35394;-68
2022/11/30 03:27:42;;;;;;;;;;;;;;;9.51;45.80;100155.00;4468907;32;34216;-68
2022/11/30 03:30:09;;;;;;;;;;;;;;;9.47;45.13;100152.63;4468799;32;33654;-68
2022/11/30 03:32:37;;;;;;;;;;;;;;;9.72;45.15;100159.94;4476725;32;33823;-68
2022/11/30 03:35:04;;;;;;;;;;;;;;;9.39;45.22;100157.59;4466177;32;33626;-68
2022/11/30 03:37:31;;;;;;;;;;;;;;;9.57;45.71;100159.97;4473324;32;33994;-66
2022/11/30 03:39:59;;;;;;;;;;;;;;;9.22;45.80;100167.53;4476868;32;34438;-67
2022/11/30 03:42:26;;;;;;;;;;;;;;;9.36;46.53;100164.00;4469207;32;34036;-70
2022/11/30 03:44:53;;;;;;;;;;;;;;;8.91;46.82;100154.38;4470760;32;35192;-68
2022/11/30 03:47:21;;;;;;;;;;;;;;;9.40;46.02;100149.47;4472179;32;34135;-67
2022/11/30 03:49:48;;;;;;;;;;;;;;;9.51;45.61;100159.50;4475803;32;33458;-68
2022/11/30 03:52:15;;;;;;;;;;;;;;;9.21;46.69;100157.81;4476858;32;34153;-72
2022/11/30 03:54:43;;;;;;;;;;;;;;;8.89;46.42;100154.44;4474497;32;33068;-67
2022/11/30 03:57:10;;;;;;;;;;;;;;;9.10;46.72;100160.28;4468986;32;34357;-66
2022/11/30 03:59:38;;;;;;;;;;;;;;;9.17;47.37;100163.44;4468161;32;34393;-68
2022/11/30 04:02:05;;;;;;;;;;;;;;;9.18;46.66;100163.34;4467481;32;34573;-68
2022/11/30 04:04:33;;;;;;;;;;;;;;;8.97;47.11;100165.53;4469484;32;33322;-68
2022/11/30 04:07:00;;;;;;;;;;;;;;;8.83;47.18;100161.03;4474508;32;34861;-66
2022/11/30 04:09:27;;;;;;;;;;;;;;;8.90;46.86;100158.00;4472615;32;34422;-66
2022/11/30 04:11:55;;;;;;;;;;;;;;;8.66;48.37;100160.34;4474063;32;33599;-66
2022/11/30 04:14:22;;;;;;;;;;;;;;;9.16;46.62;100156.38;4466484;32;35342;-67
2022/11/30 04:16:49;;;;;;;;;;;;;;;9.41;45.83;100155.72;4464045;32;35495;-66
2022/11/30 04:19:17;;;;;;;;;;;;;;;9.06;45.91;100161.44;4469566;32;34724;-66
2022/11/30 04:21:44;;;;;;;;;;;;;;;8.82;47.66;100158.44;4469633;32;34827;-66
2022/11/30 04:24:11;;;;;;;;;;;;;;;9.13;46.79;100152.09;4468127;32;34370;-66
2022/11/30 04:26:39;;;;;;;;;;;;;;;9.08;45.76;100152.37;4465844;32;34685;-66
2022/11/30 04:29:06;;;;;;;;;;;;;;;8.98;45.73;100153.88;4466470;32;33356;-67
2022/11/30 04:31:33;;;;;;;;;;;;;;;9.36;45.34;100155.13;4472955;32;34105;-66
2022/11/30 04:34:01;;;;;;;;;;;;;;;9.14;46.55;100152.94;4475979;32;33847;-65
2022/11/30 04:36:28;;;;;;;;;;;;;;;9.17;46.20;100158.09;4468216;32;35918;-66
2022/11/30 04:38:55;;;;;;;;;;;;;;;8.91;46.94;100160.56;4468472;32;32547;-66
2022/11/30 04:41:23;;;;;;;;;;;;;;;9.31;46.01;100155.44;4468104;32;34102;-66
2022/11/30 04:43:50;;;;;;;;;;;;;;;9.50;45.14;100161.31;4465242;32;34816;-66
2022/11/30 04:46:17;;;;;;;;;;;;;;;9.67;44.91;100165.59;4473057;32;34239;-69
2022/11/30 04:48:45;;;;;;;;;;;;;;;9.02;45.68;100163.44;4465622;32;31794;-66
2022/11/30 04:51:12;;;;;;;;;;;;;;;9.35;45.13;100158.75;4465115;32;32761;-68
2022/11/30 04:53:39;;;;;;;;;;;;;;;9.38;45.62;100161.25;4464280;32;34112;-69
2022/11/30 04:56:07;;;;;;;;;;;;;;;10.00;43.73;100154.50;4467721;32;34240;-66
2022/11/30 04:58:35;;;;;;;;;;;;;;;10.35;43.55;100153.16;4467816;32;34428;-66
2022/11/30 05:01:02;;;;;;;;;;;;;;;10.21;43.96;100152.22;4465799;32;34153;-68
2022/11/30 05:03:29;;;;;;;;;;;;;;;10.40;43.09;100157.25;4466358;32;34052;-67
2022/11/30 05:05:57;;;;;;;;;;;;;;;10.23;43.50;100155.63;4464790;32;34919;-72
2022/11/30 05:08:24;;;;;;;;;;;;;;;9.13;45.08;100157.44;4471635;32;34555;-68
2022/11/30 05:10:52;;;;;;;;;;;;;;;10.11;43.33;100169.84;4466847;32;33961;-68
2022/11/30 05:13:20;;;;;;;;;;;;;;;9.99;44.06;100154.63;4472544;32;33801;-68
2022/11/30 05:15:47;;;;;;;;;;;;;;;9.29;45.35;100157.34;4468564;32;34412;-67
2022/11/30 05:18:15;;;;;;;;;;;;;;;10.28;44.07;100162.56;4474173;32;34324;-69
2022/11/30 05:20:45;;;;;;;;;;;;;;;10.36;43.30;100162.87;4463709;32;34111;-71
2022/11/30 05:23:13;;;;;;;;;;;;;;;9.98;43.48;100166.25;4474033;32;33815;-68
2022/11/30 05:25:40;;;;;;;;;;;;;;;10.32;42.45;100170.25;4474224;32;34592;-71
2022/11/30 05:28:08;;;;;;;;;;;;;;;10.74;42.37;100168.31;4475561;32;33469;-68
2022/11/30 05:30:36;;;;;;;;;;;;;;;10.79;42.13;100168.00;4463420;32;34243;-68
2022/11/30 05:33:04;;;;;;;;;;;;;;;10.31;42.94;100165.87;4467676;32;34202;-67
2022/11/30 05:35:31;;;;;;;;;;;;;;;9.04;45.04;100171.34;4471619;32;33880;-71
2022/11/30 05:37:59;;;;;;;;;;;;;;;9.99;43.72;100171.50;4471457;32;33194;-68
2022/11/30 05:40:27;;;;;;;;;;;;;;;10.51;43.44;100175.25;4468710;32;35175;-71
2022/11/30 05:42:55;;;;;;;;;;;;;;;10.32;43.38;100172.94;4473087;32;34303;-68
2022/11/30 05:45:23;;;;;;;;;;;;;;;10.45;43.46;100171.16;4466949;32;34565;-71
2022/11/30 05:47:50;;;;;;;;;;;;;;;10.25;42.83;100168.94;4467592;32;34722;-66
2022/11/30 05:50:17;;;;;;;;;;;;;;;10.40;43.81;100170.62;4464253;32;34327;-67
2022/11/30 05:52:45;;;;;;;;;;;;;;;9.80;44.36;100165.66;4474920;32;33554;-68
2022/11/30 05:55:12;;;;;;;;;;;;;;;10.62;43.01;100167.31;4474092;32;34314;-68
2022/11/30 05:57:39;;;;;;;;;;;;;;;9.78;44.02;100170.22;4469937;32;33808;-66
2022/11/30 06:00:08;;;;;;;;;;;;;;;10.22;43.65;100172.66;4472479;32;34174;-68
2022/11/30 06:02:37;;;;;;;;;;;;;;;9.85;44.41;100170.69;4470640;32;34466;-69
2022/11/30 06:05:05;;;;;;;;;;;;;;;9.03;45.37;100175.84;4475082;32;33014;-71
2022/11/30 06:07:32;;;;;;;;;;;;;;;10.02;43.93;100173.13;4471898;32;33557;-70
2022/11/30 06:09:59;;;;;;;;;;;;;;;9.99;44.16;100178.69;4470435;32;33684;-67
2022/11/30 06:12:27;;;;;;;;;;;;;;;8.99;45.65;100186.78;4469682;32;34682;-73
2022/11/30 06:14:54;;;;;;;;;;;;;;;10.35;43.21;100179.91;4469772;32;35343;-69
2022/11/30 06:17:22;;;;;;;;;;;;;;;9.98;43.39;100187.62;4473884;32;34474;-69
2022/11/30 06:19:49;;;;;;;;;;;;;;;9.70;43.80;100201.97;4469705;32;33081;-69
2022/11/30 06:22:16;;;;;;;;;;;;;;;9.50;44.01;100198.75;4466041;32;34175;-70
2022/11/30 06:24:43;;;;;;;;;;;;;;;9.38;44.70;100198.66;4467977;32;33693;-69
2022/11/30 06:27:12;;;;;;;;;;;;;;;9.80;44.00;100187.88;4471883;32;34210;-70
2022/11/30 06:29:39;;;;;;;;;;;;;;;10.45;42.95;100191.72;4469591;32;34187;-67
2022/11/30 06:32:06;;;;;;;;;;;;;;;9.30;44.21;100201.78;4469303;32;34167;-68
2022/11/30 06:34:34;;;;;;;;;;;;;;;10.03;44.62;100196.22;4471632;32;32928;-66
2022/11/30 06:37:01;;;;;;;;;;;;;;;9.76;44.30;100207.75;4473234;32;34868;-74
2022/11/30 06:39:28;;;;;;;;;;;;;;;9.85;45.52;100208.97;4465948;32;35995;-71
2022/11/30 06:42:18;;;;;;;;;;;;;;;9.53;44.51;100213.69;4467137;32;33113;-72
2022/11/30 06:44:45;;;;;;;;;;;;;;;9.19;45.68;100214.94;4470575;32;34414;-68
2022/11/30 06:47:13;;;;;;;;;;;;;;;10.12;43.50;100208.16;4472567;32;33231;-68
2022/11/30 06:49:40;;;;;;;;;;;;;;;10.16;43.24;100212.34;4474150;32;33960;-67
2022/11/30 06:52:08;;;;;;;;;;;;;;;10.01;44.06;100208.84;4467008;32;34569;-68
2022/11/30 06:54:35;;;;;;;;;;;;;;;8.85;46.40;100211.66;4467756;32;33097;-69
2022/11/30 06:57:02;;;;;;;;;;;;;;;9.49;45.60;100207.69;4468639;32;34666;-68
2022/11/30 06:59:30;;;;;;;;;;;;;;;9.79;44.44;100214.72;4467577;32;33917;-68
2022/11/30 07:01:57;;;;;;;;;;;;;;;9.10;45.89;100211.03;4463458;32;33998;-69
2022/11/30 07:04:32;;;;;;;;;;;;;;;9.49;44.86;100209.50;4469202;32;34272;-68
2022/11/30 07:06:59;;;;;;;;;;;;;;;9.72;44.40;100211.56;4474031;32;33577;-68
2022/11/30 07:09:26;;;;;;;;;;;;;;;9.77;44.68;100211.28;4468009;32;32893;-68
2022/11/30 07:11:54;;;;;;;;;;;;;;;9.45;44.94;100211.50;4467651;32;33945;-69
2022/11/30 07:14:21;;;;;;;;;;;;;;;10.13;43.82;100215.22;4469661;32;34485;-68
2022/11/30 07:16:48;;;;;;;;;;;;;;;10.08;43.87;100210.19;4470626;32;32936;-69
2022/11/30 07:19:16;;;;;;;;;;;;;;;9.99;44.15;100208.94;4475862;32;34052;-68
2022/11/30 07:21:43;;;;;;;;;;;;;;;9.93;43.36;100205.81;4473983;32;33015;-70
2022/11/30 07:27:00;;;;;;;;;;;;;;;10.13;43.89;100196.50;4470746;32;34438;-73
2022/11/30 07:29:28;;;;;;;;;;;;;;;10.21;43.81;100203.06;4457917;32;33027;-72
2022/11/30 07:31:55;;;;;;;;;;;;;;;10.44;42.54;100201.56;4473658;32;33167;-71
2022/11/30 07:34:23;;;;;;;;;;;;;;;10.35;43.48;100204.00;4470534;32;34398;-69
2022/11/30 07:36:50;;;;;;;;;;;;;;;10.42;43.27;100210.66;4472868;32;34281;-69
2022/11/30 07:39:17;;;;;;;;;;;;;;;10.74;42.38;100203.13;4473469;32;32878;-71
2022/11/30 07:41:45;;;;;;;;;;;;;;;10.63;42.50;100205.69;4467334;32;33706;-70
2022/11/30 07:44:12;;;;;;;;;;;;;;;10.41;43.00;100209.78;4467079;32;34533;-69
2022/11/30 07:46:39;;;;;;;;;;;;;;;9.88;43.57;100206.09;4466454;32;33089;-69
2022/11/30 07:49:08;;;;;;;;;;;;;;;10.49;43.02;100204.75;4467034;32;32981;-69
2022/11/30 07:51:35;;;;;;;;;;;;;;;10.23;43.49;100202.94;4466937;32;32917;-70
2022/11/30 07:54:02;;;;;;;;;;;;;;;9.24;43.96;100208.34;4465657;32;34528;-71
2022/11/30 07:56:30;;;;;;;;;;;;;;;9.73;44.01;100212.44;4470819;32;33303;-70
2022/11/30 07:58:58;;;;;;;;;;;;;;;9.94;43.39;100207.53;4478102;32;33615;-69
2022/11/30 08:01:29;;;;;;;;;;;;;;;9.83;42.67;100200.22;4473837;32;34881;-69
2022/11/30 08:03:57;;;;;;;;;;;;;;;10.39;41.61;100209.03;4468106;32;34507;-69
2022/11/30 08:06:25;;;;;;;;;;;;;;;10.43;40.68;100205.22;4473951;32;34682;-69
2022/11/30 08:08:53;;;;;;;;;;;;;;;9.61;42.44;100205.22;4475850;32;33703;-70
2022/11/30 08:11:22;;;;;;;;;;;;;;;9.74;42.11;100204.31;4468103;32;34353;-70
2022/11/30 08:13:49;;;;;;;;;;;;;;;9.23;43.28;100211.13;4468110;32;34337;-70
2022/11/30 08:16:17;;;;;;;;;;;;;;;9.40;43.18;100213.59;4473869;32;33365;-71
2022/11/30 08:18:46;;;;;;;;;;;;;;;9.14;44.15;100211.69;4473410;32;31553;-69
2022/11/30 08:21:14;;;;;;;;;;;;;;;9.37;43.26;100205.78;4465292;32;33943;-68
2022/11/30 08:23:43;;;;;;;;;;;;;;;8.89;44.22;100212.31;4471837;32;35293;-70
2022/11/30 08:26:11;;;;;;;;;;;;;;;9.23;43.09;100209.31;4472640;32;32627;-70
2022/11/30 08:28:39;;;;;;;;;;;;;;;9.02;43.20;100205.28;4459398;32;34128;-69
2022/11/30 08:31:08;;;;;;;;;;;;;;;8.73;43.91;100201.72;4467198;32;34295;-71
2022/11/30 08:33:35;;;;;;;;;;;;;;;9.02;43.06;100192.81;4467639;32;35006;-69
2022/11/30 08:36:09;;;;;;;;;;;;;;;9.17;42.82;100192.81;4467123;32;33511;-70
2022/11/30 08:38:36;;;;;;;;;;;;;;;9.56;42.10;100184.97;4469907;32;35043;-69
2022/11/30 08:41:04;;;;;;;;;;;;;;;9.24;42.02;100192.31;4471570;32;32999;-72
2022/11/30 08:43:31;;;;;;;;;;;;;;;9.04;42.31;100180.22;4470976;32;33086;-70
2022/11/30 08:46:01;;;;;;;;;;;;;;;8.92;43.21;100183.63;4470487;32;34249;-68
2022/11/30 08:48:28;;;;;;;;;;;;;;;9.00;42.20;100184.03;4472616;32;33811;-71
2022/11/30 08:51:21;;;;;;;;;;;;;;;8.58;43.93;100188.34;4472424;32;33014;-70
2022/11/30 08:53:49;;;;;;;;;;;;;;;8.83;43.06;100195.75;4471757;32;34234;-69
2022/11/30 08:56:18;;;;;;;;;;;;;;;9.16;42.08;100189.28;4453823;32;33311;-70
2022/11/30 08:58:46;;;;;;;;;;;;;;;8.86;42.51;100192.87;4469228;32;34363;-72
2022/11/30 09:01:17;;;;;;;;;;;;;;;8.78;42.80;100194.28;4467698;32;34140;-72
2022/11/30 09:03:45;;;;;;;;;;;;;;;8.59;43.27;100189.19;4470890;32;34407;-70
2022/11/30 09:06:12;;;;;;;;;;;;;;;8.50;43.78;100198.59;4466307;32;33823;-70
2022/11/30 09:08:40;;;;;;;;;;;;;;;8.92;42.39;100198.78;4469516;32;34421;-70
2022/11/30 09:11:15;;;;;;;;;;;;;;;9.35;42.01;100196.16;4474943;32;34233;-72
2022/11/30 09:13:43;;;;;;;;;;;;;;;8.64;42.11;100197.81;4477375;32;35021;-71
2022/11/30 09:16:10;;;;;;;;;;;;;;;8.57;43.79;100196.41;4470067;32;32358;-70
2022/11/30 09:18:38;;;;;;;;;;;;;;;8.67;42.94;100196.72;4465750;32;34138;-71
2022/11/30 09:21:07;;;;;;;;;;;;;;;8.66;43.82;100195.03;4468978;32;35340;-68
2022/11/30 09:23:34;;;;;;;;;;;;;;;8.92;42.53;100206.78;4467510;32;35175;-71
2022/11/30 09:26:03;;;;;;;;;;;;;;;9.06;42.21;100197.00;4463301;32;34510;-73
2022/11/30 09:28:31;;;;;;;;;;;;;;;8.97;42.13;100194.03;4471226;32;34124;-71
2022/11/30 09:31:01;;;;;;;;;;;;;;;9.04;42.50;100200.72;4467219;32;33977;-70
2022/11/30 09:33:29;;;;;;;;;;;;;;;8.66;43.67;100200.34;4467730;32;34228;-72
2022/11/30 09:36:01;;;;;;;;;;;;;;;8.88;43.53;100205.28;4470928;32;33416;-68
2022/11/30 09:38:28;;;;;;;;;;;;;;;8.79;42.99;100199.53;4453650;32;33151;-69
2022/11/30 09:40:56;;;;;;;;;;;;;;;8.58;43.98;100201.69;4469425;32;36387;-69
2022/11/30 09:43:45;;;;;;;;;;;;;;;8.63;43.31;100196.94;4464066;32;33722;-67
2022/11/30 09:46:12;;;;;;;;;;;;;;;8.13;45.15;100200.72;4477719;32;34057;-69
2022/11/30 09:48:59;;;;;;;;;;;;;;;8.74;43.12;100193.63;4469117;32;34803;-70
2022/11/30 09:51:29;;;;;;;;;;;;;;;8.91;43.34;100195.28;4461806;32;34461;-69
2022/11/30 09:54:01;;;;;;;;;;;;;;;8.26;44.02;100198.19;4470974;32;34485;-71
2022/11/30 09:56:32;;;;;;;;;;;;;;;9.23;42.57;100189.75;4465178;32;32327;-69
2022/11/30 09:59:14;;;;;;;;;;;;;;;8.98;43.79;100193.94;4467192;32;35172;-68
2022/11/30 10:01:42;;;;;;;;;;;;;;;8.91;43.55;100187.25;4460212;32;34285;-66
2022/11/30 10:04:23;;;;;;;;;;;;;;;8.48;44.43;100186.31;4469172;32;34662;-66
2022/11/30 10:07:10;;;;;;;;;;;;;;;8.72;44.38;100187.50;4467171;32;33808;-65
2022/11/30 10:09:38;;;;;;;;;;;;;;;9.22;43.71;100188.06;4434109;32;34126;-68
2022/11/30 10:12:13;;;;;;;;;;;;;;;8.79;43.54;100182.66;4468988;32;34089;-65
2022/11/30 10:14:44;;;;;;;;;;;;;;;8.92;43.78;100188.97;4465217;32;34487;-65
2022/11/30 10:17:17;;;;;;;;;;;;;;;8.75;43.46;100179.31;4478260;32;33772;-65
2022/11/30 10:20:05;;;;;;;;;;;;;;;9.36;42.90;100182.69;4458863;32;34592;-65
2022/11/30 10:22:47;;;;;;;;;;;;;;;8.94;44.20;100171.06;4474741;31;34245;-67
2022/11/30 10:25:21;;;;;;;;;;;;;;;8.39;45.67;100169.03;4474154;32;32925;-67
2022/11/30 10:27:49;;;;;;;;;;;;;;;9.24;43.07;100160.28;4466866;32;33228;-67
2022/11/30 10:30:23;;;;;;;;;;;;;;;9.03;43.97;100157.16;4482221;32;32699;-67
2022/11/30 10:32:55;;;;;;;;;;;;;;;8.51;44.70;100152.31;4470789;32;33923;-66
2022/11/30 10:35:22;;;;;;;;;;;;;;;8.63;44.66;100156.03;4472285;32;33080;-68
2022/11/30 10:37:50;;;;;;;;;;;;;;;8.61;44.69;100147.28;4477569;32;34356;-67
2022/11/30 10:40:19;;;;;;;;;;;;;;;8.57;45.28;100151.94;4480526;32;34333;-66
2022/11/30 10:42:49;;;;;;;;;;;;;;;8.40;45.66;100155.59;4461162;32;34447;-68
2022/11/30 10:45:17;;;;;;;;;;;;;;;8.95;43.81;100158.56;4462095;32;34541;-66
2022/11/30 10:47:46;;;;;;;;;;;;;;;8.86;44.86;100160.00;4452236;32;33633;-66
2022/11/30 10:50:15;;;;;;;;;;;;;;;9.14;43.30;100155.63;4465975;32;34262;-66
2022/11/30 10:52:46;;;;;;;;;;;;;;;9.07;43.88;100165.81;4481991;32;34256;-67
2022/11/30 10:55:17;;;;;;;;;;;;;;;8.82;44.83;100161.97;4459007;32;34327;-66
2022/11/30 10:57:44;;;;;;;;;;;;;;;9.17;44.08;100164.28;4468253;32;34961;-66
2022/11/30 11:00:13;;;;;;;;;;;;;;;9.01;44.79;100151.03;4465493;32;32639;-67
2022/11/30 11:02:42;;;;;;;;;;;;;;;9.03;45.43;100150.94;4456487;31;34562;-67
2022/11/30 11:05:15;;;;;;;;;;;;;;;9.53;42.79;100149.56;4456412;32;34936;-67
2022/11/30 11:07:53;;;;;;;;;;;;;;;8.55;45.64;100144.97;4472009;32;34182;-67
2022/11/30 11:10:27;;;;;;;;;;;;;;;8.60;45.65;100148.22;4472255;32;33876;-67
2022/11/30 11:12:54;;;;;;;;;;;;;;;8.79;45.15;100153.28;4475220;32;33129;-68
2022/11/30 11:15:31;;;;;;;;;;;;;;;8.48;47.51;100154.31;4471470;32;34328;-67
2022/11/30 11:18:11;;;;;;;;;;;;;;;8.98;45.39;100155.69;4480794;32;34954;-67
2022/11/30 11:20:41;;;;;;;;;;;;;;;9.64;43.21;100146.22;4470816;32;32519;-69
2022/11/30 11:23:22;;;;;;;;;;;;;;;9.55;43.14;100156.53;4459586;32;34076;-69
2022/11/30 11:25:51;;;;;;;;;;;;;;;9.19;44.24;100149.03;4454424;32;34822;-68
2022/11/30 11:28:20;;;;;;;;;;;;;;;9.59;43.99;100145.66;4458515;32;32093;-68
2022/11/30 11:30:48;;;;;;;;;;;;;;;9.65;42.75;100148.78;4456233;32;33580;-67
2022/11/30 11:33:20;;;;;;;;;;;;;;;9.23;44.05;100155.03;4470185;32;34043;-70
2022/11/30 11:35:49;;;;;;;;;;;;;;;10.00;43.67;100151.81;4468350;32;34412;-68
2022/11/30 11:38:17;;;;;;;;;;;;;;;10.29;42.42;100157.09;4470691;32;32322;-70
2022/11/30 11:40:51;;;;;;;;;;;;;;;10.58;42.06;100151.59;4469600;32;36191;-68
2022/11/30 11:43:18;;;;;;;;;;;;;;;10.44;43.41;100150.72;4465010;32;33151;-69
2022/11/30 11:45:49;;;;;;;;;;;;;;;9.75;43.85;100151.72;4468427;32;34211;-69
2022/11/30 11:48:27;;;;;;;;;;;;;;;10.31;42.98;100157.00;4467700;32;31948;-68
2022/11/30 11:50:59;;;;;;;;;;;;;;;10.25;42.80;100153.72;4454635;32;34416;-66
2022/11/30 11:53:51;;;;;;;;;;;;;;;10.62;42.16;100153.94;4467424;32;34131;-69
2022/11/30 11:56:23;;;;;;;;;;;;;;;10.85;41.33;100159.53;4467936;32;33146;-68
2022/11/30 11:59:01;;;;;;;;;;;;;;;10.45;41.92;100151.56;4477129;32;32551;-65
2022/11/30 12:01:49;;;;;;;;;;;;;;;10.35;42.24;100147.81;4468788;32;34161;-66
2022/11/30 12:04:36;;;;;;;;;;;;;;;9.23;45.16;100139.88;4468146;32;34281;-67
2022/11/30 12:07:08;;;;;;;;;;;;;;;9.38;45.38;100132.72;4467674;32;34807;-66
2022/11/30 12:09:40;;;;;;;;;;;;;;;10.07;44.04;100130.03;4480517;32;34551;-68
2022/11/30 12:12:10;;;;;;;;;;;;;;;9.90;44.14;100132.00;4457228;32;33568;-66
2022/11/30 12:14:37;;;;;;;;;;;;;;;9.98;44.55;100135.03;4468909;32;34158;-69
2022/11/30 12:17:17;;;;;;;;;;;;;;;10.38;42.82;100139.56;4474636;32;35542;-69
2022/11/30 12:19:47;;;;;;;;;;;;;;;9.62;44.48;100129.41;4455668;32;33661;-68
2022/11/30 12:22:22;;;;;;;;;;;;;;;10.01;45.03;100131.28;4466691;32;32716;-71
2022/11/30 12:25:07;;;;;;;;;;;;;;;9.29;45.07;100130.62;4473234;32;33418;-67
2022/11/30 12:27:56;;;;;;;;;;;;;;;9.49;45.79;100124.00;4464929;32;34352;-66
2022/11/30 12:30:25;;;;;;;;;;;;;;;10.01;44.34;100113.41;4471948;32;32291;-67
2022/11/30 12:33:25;;;;;;;;;;;;;;;9.46;46.07;100114.34;4480145;32;33986;-66
2022/11/30 12:36:11;;;;;;;;;;;;;;;9.62;45.65;100110.72;4435743;32;34434;-66
2022/11/30 12:38:45;;;;;;;;;;;;;;;9.64;46.04;100124.84;4467918;32;34313;-65
2022/11/30 12:41:31;;;;;;;;;;;;;;;9.51;45.98;100120.28;4464030;32;32920;-66
2022/11/30 12:44:16;;;;;;;;;;;;;;;10.12;44.90;100123.41;4470184;32;32853;-69
2022/11/30 12:46:44;;;;;;;;;;;;;;;9.93;44.26;100126.47;4458059;32;34010;-66
2022/11/30 12:49:20;;;;;;;;;;;;;;;9.67;45.11;100119.28;4469807;32;34197;-65
2022/11/30 12:52:00;;;;;;;;;;;;;;;10.08;44.94;100121.91;4460112;32;34573;-66
2022/11/30 12:54:40;;;;;;;;;;;;;;;9.59;46.17;100119.78;4462818;32;34657;-65
2022/11/30 12:57:12;;;;;;;;;;;;;;;10.21;44.73;100114.78;4455970;32;34819;-67
2022/11/30 12:59:46;;;;;;;;;;;;;;;10.48;44.38;100108.53;4455632;32;34313;-66
2022/11/30 13:02:34;;;;;;;;;;;;;;;10.00;45.87;100111.72;4455916;32;34550;-66